Data for 08/10/2010

Time Sea-Level Adjusted Pressure Absolute Pressure Temperature Relative Humidity Dew Point   
(mb) (inHg) (mb) (inHg) (C) (F) (%) (C) (F)
00:05 1018 30.06 847 25.01 14.5 58.1 73 9.7 49.4
00:10 1018 30.06 847 25.01 14.4 57.9 71 9.3 48.7
00:15 1018 30.06 847 25.01 14.6 58.3 71 9.3 48.8
00:20 1018 30.06 847 25.01 14.7 58.5 71 9.5 49.1
00:25 1018 30.06 847 25.01 14.6 58.2 71 9.4 48.8
00:30 1018 30.06 847 25.01 14.4 58 72 9.6 49.2
00:35 1018 30.06 847 25.01 14 57.2 75 9.6 49.3
00:40 1018 30.06 847 25.01 14 57.2 73 9.3 48.8
00:45 1018 30.06 847 25.01 14.1 57.3 74 9.5 49.2
00:50 1018 30.06 847 25.01 13.8 56.9 76 9.6 49.4
00:55 1018 30.06 847 25.01 13.6 56.4 77 9.7 49.4
01:00 1018 30.06 847 25.01 13.2 55.8 78 9.4 49
01:05 1018 30.06 847 25.01 12.9 55.2 78 9.2 48.6
01:10 1018 30.06 847 25.01 12.8 55 78 9 48.3
01:15 1017 30.03 847 25.01 12.6 54.7 80 9.2 48.6
01:20 1017 30.03 847 25.01 12.2 54 81 9.1 48.3
01:25 1017 30.03 847 25.01 12.3 54.1 78 8.5 47.3
01:30 1017 30.03 847 25.01 12.9 55.2 74 8.5 47.3
01:35 1017 30.03 847 25.01 13.4 56 74 8.8 47.8
01:40 1017 30.03 846 24.98 13.4 56.2 73 8.7 47.7
01:45 1017 30.03 846 24.98 13.1 55.6 75 8.8 47.8
01:50 1017 30.03 846 24.98 13 55.4 74 8.5 47.3
01:55 1017 30.03 847 25.01 12.6 54.7 77 8.8 47.8
02:00 1017 30.03 847 25.01 12.2 53.9 78 8.5 47.3
02:05 1017 30.03 847 25.01 12.2 54 77 8.3 47
02:10 1017 30.03 847 25.01 12.2 54 77 8.4 47.1
02:15 1017 30.03 847 25.01 12.2 53.9 78 8.4 47.1
02:20 1017 30.03 847 25.01 12.2 53.9 77 8.4 47.1
02:25 1017 30.03 846 24.98 12 53.7 79 8.5 47.3
02:30 1017 30.03 847 25.01 11.5 52.7 81 8.4 47.1
02:35 1017 30.03 847 25.01 11.4 52.5 82 8.4 47.1
02:40 1017 30.03 846 24.98 11.3 52.3 82 8.3 46.9
02:45 1017 30.03 846 24.98 11.4 52.6 81 8.4 47.1
02:50 1017 30.03 846 24.98 11.5 52.6 80 8.2 46.8
02:55 1017 30.03 846 24.98 11.8 53.3 78 8.2 46.7
03:00 1017 30.03 846 24.98 12.1 53.7 78 8.3 46.9
03:05 1017 30.03 846 24.98 12.1 53.8 78 8.4 47.2
03:10 1017 30.03 846 24.98 11.7 53.1 80 8.4 47.2
03:15 1017 30.03 846 24.98 11.5 52.7 81 8.4 47.1
03:20 1017 30.03 846 24.98 11.6 52.9 80 8.3 46.9
03:25 1017 30.03 846 24.98 11.8 53.2 79 8.2 46.8
03:30 1017 30.03 846 24.98 12 53.5 77 8.1 46.6
03:35 1017 30.03 846 24.98 11.9 53.5 77 8.1 46.6
03:40 1017 30.03 846 24.98 11.7 53 79 8.1 46.6
03:45 1017 30.03 846 24.98 11.5 52.7 78 7.8 46.1
03:50 1017 30.03 846 24.98 11.7 53 77 7.9 46.2
03:55 1017 30.03 846 24.98 11.8 53.2 77 7.9 46.3
04:00 1017 30.03 846 24.98 11.9 53.3 77 8.1 46.5
04:05 1017 30.03 846 24.98 11.5 52.7 79 8 46.4
04:10 1017 30.03 846 24.98 11.4 52.6 79 7.9 46.1
04:15 1017 30.03 846 24.98 11.6 52.9 78 7.9 46.2
04:20 1017 30.03 846 24.98 11.6 53 78 7.9 46.2
04:25 1017 30.03 846 24.98 11.6 53 77 7.7 45.9
04:30 1017 30.03 846 24.98 11.8 53.3 76 7.8 46.1
04:35 1017 30.03 846 24.98 11.7 53.1 76 7.7 45.9
04:40 1017 30.03 846 24.98 11.7 53.1 76 7.7 45.9
04:45 1017 30.03 846 24.98 11.7 53.1 77 7.8 46.1
04:50 1017 30.03 846 24.98 11.7 53.1 76 7.7 45.9
04:55 1017 30.03 846 24.98 11.7 53.1 77 7.9 46.1
05:00 1017 30.03 847 25.01 11.4 52.5 78 7.7 45.8
05:05 1017 30.03 847 25.01 11.4 52.5 78 7.7 45.8
05:10 1017 30.03 847 25.01 11.5 52.7 78 7.7 45.9
05:15 1018 30.06 847 25.01 11.3 52.3 79 7.8 46
05:20 1018 30.06 847 25.01 10.9 51.7 79 7.5 45.4
05:25 1018 30.06 847 25.01 11 51.8 79 7.6 45.7
05:30 1018 30.06 847 25.01 10.7 51.2 81 7.6 45.6
05:35 1018 30.06 847 25.01 10.6 51 81 7.4 45.4
05:40 1018 30.06 847 25.01 11 51.8 78 7.4 45.3
05:45 1018 30.06 847 25.01 11.1 52.1 79 7.6 45.7
05:50 1018 30.06 847 25.01 10.6 51 82 7.6 45.7
05:55 1018 30.06 847 25.01 10.2 50.3 81 7.2 44.9
06:00 1018 30.06 847 25.01 10.4 50.7 82 7.5 45.6
06:05 1018 30.06 847 25.01 9.9 49.8 85 7.4 45.3
06:10 1018 30.06 847 25.01 9.8 49.6 84 7.2 44.9
06:15 1018 30.06 847 25.01 9.9 49.8 83 7.2 44.9
06:20 1018 30.06 847 25.01 10.1 50.1 82 7.1 44.8
06:25 1018 30.06 847 25.01 10.1 50.2 83 7.3 45.1
06:30 1018 30.06 847 25.01 10.2 50.4 81 7 44.7
06:35 1018 30.06 847 25.01 10.3 50.5 81 7.2 45
06:40 1018 30.06 847 25.01 10.4 50.8 79 7 44.5
06:45 1018 30.06 847 25.01 10.8 51.5 78 7.1 44.8
06:50 1018 30.06 847 25.01 10.7 51.3 79 7.3 45.1
06:55 1018 30.06 847 25.01 10.6 51 79 7 44.6
07:00 1018 30.06 847 25.01 10.5 50.9 79 7.1 44.7
07:05 1018 30.06 847 25.01 10.6 51.1 79 7.1 44.8
07:10 1018 30.06 847 25.01 10.8 51.4 76 6.7 44.1
07:15 1018 30.06 847 25.01 11.8 53.2 72 6.8 44.3
07:20 1018 30.06 847 25.01 12.3 54.2 71 7.3 45.1
07:25 1017 30.03 847 25.01 12.8 55 69 7.4 45.2
07:30 1017 30.03 846 24.98 12.9 55.3 71 7.8 46
07:35 1017 30.03 846 24.98 12.2 54 74 7.9 46.2
07:40 1017 30.03 846 24.98 11.9 53.4 75 7.6 45.8
07:45 1017 30.03 846 24.98 12 53.7 73 7.4 45.4
07:50 1017 30.03 846 24.98 12.5 54.5 71 7.5 45.4
07:55 1017 30.03 846 24.98 13.4 56 68 7.5 45.5
08:00 1017 30.03 846 24.98 14.1 57.4 67 8.1 46.6
08:05 1017 30.03 847 25.01 15 59 62 7.9 46.2
08:10 1017 30.03 847 25.01 15.2 59.3 64 8.4 47.1
08:15 1017 30.03 847 25.01 15.1 59.1 64 8.4 47.1
08:20 1018 30.06 847 25.01 14.6 58.2 66 8.3 46.9
08:25 1018 30.06 847 25.01 14.8 58.6 65 8.3 47
08:30 1017 30.03 847 25.01 15.5 59.8 65 9 48.3
08:35 1017 30.03 847 25.01 16.1 61 62 9 48.2
08:40 1017 30.03 847 25.01 16.5 61.7 60 8.7 47.6
08:45 1017 30.03 847 25.01 16.4 61.5 60 8.6 47.6
08:50 1018 30.06 847 25.01 16.9 62.3 58 8.6 47.5
08:55 1018 30.06 847 25.01 17.5 63.4 55 8.5 47.3
09:00 1018 30.06 847 25.01 18.2 64.7 52 8.3 47
09:05 1018 30.06 847 25.01 18.9 66 52 9 48.2
09:10 1018 30.06 847 25.01 19.3 66.8 52 9.3 48.7
09:15 1018 30.06 847 25.01 19.4 67 51 9.2 48.6
09:20 1018 30.06 847 25.01 20 68 48 8.9 48
09:25 1018 30.06 847 25.01 19.5 67.1 51 9.2 48.5
09:30 1018 30.06 847 25.01 19.5 67.1 49 8.7 47.6
09:35 1018 30.06 847 25.01 20.2 68.3 47 8.7 47.6
09:40 1018 30.06 847 25.01 20.5 68.9 48 9.2 48.5
09:45 1018 30.06 847 25.01 19.9 67.9 46 8 46.5
09:50 1018 30.06 847 25.01 20.4 68.7 48 9.1 48.4
09:55 1018 30.06 847 25.01 19.9 67.9 49 9 48.3
10:00 1018 30.06 847 25.01 19.3 66.8 47 8 46.4
10:05 1018 30.06 847 25.01 19.2 66.6 49 8.2 46.8
10:10 1018 30.06 847 25.01 18.8 65.9 50 8.2 46.8
10:15 1018 30.06 847 25.01 19.1 66.4 51 8.8 47.8
10:20 1018 30.06 847 25.01 19.2 66.5 51 8.9 48
10:25 1018 30.06 847 25.01 19.8 67.7 49 9 48.2
10:30 1018 30.06 847 25.01 20.2 68.4 49 9.3 48.8
10:35 1018 30.06 847 25.01 20.5 68.9 47 9 48.3
10:40 1018 30.06 847 25.01 21.3 70.3 45 8.9 48.1
10:45 1018 30.06 847 25.01 21.8 71.3 44 9.3 48.7
10:50 1018 30.06 847 25.01 21.5 70.7 45 9.4 48.9
10:55 1018 30.06 847 25.01 21.3 70.3 45 9.1 48.4
11:00 1018 30.06 848 25.04 21.4 70.4 44 8.9 48
11:05 1018 30.06 848 25.04 20.7 69.2 46 8.7 47.6
11:10 1018 30.06 848 25.04 20.2 68.3 46 8.5 47.3
11:15 1018 30.06 848 25.04 20.7 69.2 45 8.3 47
11:20 1018 30.06 848 25.04 20.9 69.7 44 8.5 47.3
11:25 1018 30.06 847 25.01 21.2 70.2 45 8.8 47.9
11:30 1018 30.06 847 25.01 21.1 70 47 9.4 49
11:35 1018 30.06 847 25.01 21 69.7 46 9 48.1
11:40 1018 30.06 847 25.01 21.2 70.1 45 8.8 47.8
11:45 1018 30.06 847 25.01 21.3 70.3 42 8.2 46.8
11:50 1018 30.06 847 25.01 21.4 70.4 43 8.5 47.4
11:55 1018 30.06 847 25.01 21.5 70.6 43 8.4 47.1
12:00 1018 30.06 847 25.01 21.6 70.8 39 7.3 45.2
12:05 1018 30.06 847 25.01 21.2 70.2 39 6.9 44.4
12:10 1018 30.06 847 25.01 22 71.6 36 6.5 43.7
12:15 1018 30.06 847 25.01 22.4 72.3 34 6 42.8
12:20 1018 30.06 847 25.01 22.6 72.6 32 5.2 41.4
12:25 1018 30.06 847 25.01 22.1 71.8 32 5 41
12:30 1018 30.06 847 25.01 22.8 73.1 31 5.2 41.3
12:35 1018 30.06 847 25.01 24.5 76.1 28 4.9 40.9
12:40 1018 30.06 847 25.01 24.6 76.3 27 4.7 40.5
12:45 1018 30.06 847 25.01 24.2 75.6 27 4.3 39.7
12:50 1018 30.06 847 25.01 25.2 77.3 26 4.8 40.6
12:55 1018 30.06 847 25.01 24.7 76.5 28 5 41.1
13:00 1018 30.06 847 25.01 23.9 75 29 4.9 40.9
13:05 1018 30.06 847 25.01 23.8 74.9 29 5 41
13:10 1018 30.06 847 25.01 24 75.3 28 4.7 40.4
13:15 1018 30.06 848 25.04 23.3 73.9 26 3.2 37.7
13:20 1018 30.06 848 25.04 22.9 73.1 28 3.4 38
13:25 1019 30.09 848 25.04 22.6 72.7 28 3.5 38.4
13:30 1019 30.09 848 25.04 22.7 72.9 28 3.5 38.3
13:35 1019 30.09 848 25.04 22.6 72.7 29 4.1 39.4
13:40 1019 30.09 848 25.04 22.4 72.2 30 4.3 39.7
13:45 1019 30.09 848 25.04 22.2 72 30 4.2 39.6
13:50 1019 30.09 848 25.04 21.7 71 31 4.1 39.4
13:55 1019 30.09 848 25.04 21.1 70 33 4.3 39.7
14:00 1019 30.09 848 25.04 20.5 68.9 35 4.5 40.1
14:05 1019 30.09 849 25.07 19.7 67.5 38 5 41
14:10 1019 30.09 849 25.07 18.9 66 46 7.1 44.8
14:15 1019 30.09 849 25.07 17.4 63.2 51 7.2 45
14:20 1019 30.09 849 25.07 16.9 62.3 54 7.6 45.7
14:25 1019 30.09 848 25.04 16.5 61.7 57 8.2 46.7
14:30 1019 30.09 848 25.04 16.5 61.6 54 7.3 45.1
14:35 1019 30.09 848 25.04 16.7 62.1 55 7.8 46
14:40 1019 30.09 848 25.04 16.6 61.9 55 7.5 45.6
14:45 1019 30.09 848 25.04 17 62.5 50 6.6 43.9
14:50 1019 30.09 848 25.04 17.4 63.2 46 5.8 42.4
14:55 1018 30.06 848 25.04 17.8 64 48 6.8 44.2
15:00 1018 30.06 847 25.01 18.2 64.8 45 6.1 42.9
15:05 1018 30.06 847 25.01 19.4 66.9 42 6.2 43.2
15:10 1018 30.06 847 25.01 20.1 68.2 37 5.2 41.3
15:15 1018 30.06 847 25.01 20.4 68.7 37 5.3 41.6
15:20 1018 30.06 847 25.01 20.3 68.6 36 5.1 41.1
15:25 1018 30.06 847 25.01 20 68.1 38 5.4 41.7
15:30 1018 30.06 847 25.01 19.9 67.8 39 5.5 42
15:35 1018 30.06 847 25.01 19.8 67.6 38 5.3 41.5
15:40 1018 30.06 847 25.01 19.8 67.6 39 5.4 41.8
15:45 1018 30.06 847 25.01 19.8 67.7 38 5.3 41.6
15:50 1018 30.06 847 25.01 19.9 67.8 39 5.5 41.9
15:55 1018 30.06 847 25.01 19.9 67.8 35 4.1 39.4
16:00 1018 30.06 847 25.01 20.3 68.5 35 4.5 40
16:05 1018 30.06 847 25.01 20 68 38 5.3 41.6
16:10 1018 30.06 848 25.04 19.8 67.6 36 4.4 39.9
16:15 1019 30.09 848 25.04 19.8 67.6 45 7.5 45.5
16:20 1019 30.09 848 25.04 19.1 66.3 45 7 44.6
16:25 1019 30.09 848 25.04 18.6 65.5 51 8.5 47.2
16:30 1018 30.06 847 25.01 18.3 64.9 50 7.7 45.9
16:35 1018 30.06 847 25.01 18.9 66 45 6.9 44.4
16:40 1018 30.06 847 25.01 19.3 66.7 50 8.7 47.6
16:45 1018 30.06 847 25.01 19.4 66.9 45 7.1 44.8
16:50 1018 30.06 847 25.01 19.5 67 45 7.5 45.5
16:55 1018 30.06 847 25.01 19.6 67.2 48 8.5 47.2
17:00 1018 30.06 847 25.01 19.6 67.2 46 7.8 46.1
17:05 1018 30.06 847 25.01 19.5 67.1 48 8.2 46.8
17:10 1017 30.03 847 25.01 19.6 67.3 47 8.1 46.6
17:15 1017 30.03 846 24.98 19.9 67.7 45 7.7 45.9
17:20 1017 30.03 846 24.98 20.4 68.7 42 7.3 45.1
17:25 1017 30.03 846 24.98 20.9 69.5 36 5.2 41.4
17:30 1017 30.03 846 24.98 21.1 70 38 6.2 43.2
17:35 1017 30.03 846 24.98 21.5 70.7 35 5.4 41.7
17:40 1017 30.03 846 24.98 21.8 71.2 32 4.3 39.8
17:45 1017 30.03 846 24.98 21.5 70.6 33 4.7 40.4
17:50 1017 30.03 846 24.98 21.5 70.8 35 5.5 42
17:55 1016 30 846 24.98 21.8 71.2 35 5.8 42.4
18:00 1016 30 845 24.95 21.8 71.3 33 5.2 41.4
18:05 1016 30 845 24.95 21.9 71.3 34 5.4 41.8
18:10 1016 30 845 24.95 21.7 71.1 37 6.4 43.5
18:15 1016 30 845 24.95 21.5 70.6 36 5.8 42.5
18:20 1016 30 845 24.95 21.3 70.3 37 6.1 43
18:25 1016 30 845 24.95 21 69.8 38 6.5 43.6
18:30 1016 30 845 24.95 20.7 69.3 39 6.3 43.4
18:35 1016 30 845 24.95 20.6 69 41 6.9 44.5
18:40 1016 30 845 24.95 20.4 68.7 42 7.1 44.8
18:45 1016 30 845 24.95 20.3 68.5 42 7.1 44.8
18:50 1016 30 845 24.95 20.3 68.5 42 7.1 44.7
18:55 1016 30 845 24.95 20.2 68.4 43 7.3 45.1
19:00 1016 30 845 24.95 20.2 68.3 43 7.3 45.2
19:05 1016 30 845 24.95 20.2 68.3 42 7 44.7
19:10 1015 29.97 845 24.95 20.2 68.3 43 7.4 45.4
19:15 1015 29.97 845 24.95 20.2 68.3 43 7.4 45.3
19:20 1015 29.97 844 24.92 20.2 68.4 42 7 44.6
19:25 1015 29.97 844 24.92 20.4 68.7 41 6.9 44.5
19:30 1015 29.97 845 24.95 20.4 68.8 41 6.8 44.2
19:35 1015 29.97 845 24.95 20.4 68.8 41 6.8 44.3
19:40 1016 30 845 24.95 20.4 68.7 41 6.8 44.2
19:45 1016 30 845 24.95 20.4 68.7 39 6.1 43
19:50 1016 30 845 24.95 20.4 68.8 41 6.9 44.4
19:55 1016 30 846 24.98 20.3 68.5 43 7.6 45.6
20:00 1016 30 845 24.95 20.2 68.4 40 6.5 43.7
20:05 1017 30.03 846 24.98 20.5 69 39 6.3 43.3
20:10 1017 30.03 846 24.98 20.7 69.3 41 7.1 44.8
20:15 1017 30.03 846 24.98 20.3 68.6 41 6.8 44.3
20:20 1017 30.03 846 24.98 20.1 68.1 45 8 46.4
20:25 1017 30.03 846 24.98 19.8 67.6 51 9.5 49
20:30 1017 30.03 846 24.98 18.9 66 53 9.3 48.8
20:35 1017 30.03 847 25.01 18.3 65 57 9.7 49.5
20:40 1018 30.06 847 25.01 17.7 63.9 65 11.3 52.3
20:45 1018 30.06 848 25.04 16.6 61.8 73 11.7 53.1
20:50 1019 30.09 848 25.04 15.8 60.4 73 11.1 51.9
20:55 1019 30.09 848 25.04 15.6 60 74 11.1 51.9
21:00 1019 30.09 848 25.04 15.4 59.8 74 10.8 51.4
21:05 1018 30.06 848 25.04 15.7 60.3 63 8.7 47.6
21:10 1018 30.06 847 25.01 15.9 60.7 70 10.5 50.9
21:15 1018 30.06 847 25.01 15.6 60 71 10.4 50.8
21:20 1018 30.06 847 25.01 15.4 59.6 69 9.8 49.6
21:25 1018 30.06 847 25.01 15.4 59.6 69 9.8 49.6
21:30 1018 30.06 848 25.04 15.3 59.5 74 10.6 51.1
21:35 1019 30.09 848 25.04 14.7 58.5 74 10.2 50.3
21:40 1019 30.09 848 25.04 14.5 58.2 76 10.3 50.5
21:45 1019 30.09 848 25.04 14.4 57.9 75 10.1 50.1
21:50 1019 30.09 848 25.04 14.4 58 76 10.3 50.5
21:55 1019 30.09 848 25.04 14.2 57.6 75 9.9 49.9
22:00 1019 30.09 848 25.04 14.2 57.6 75 10 49.9
22:05 1019 30.09 848 25.04 14.2 57.6 75 10 50
22:10 1019 30.09 849 25.07 14.2 57.6 74 9.7 49.5
22:15 1020 30.12 849 25.07 14.3 57.7 74 9.8 49.7
22:20 1020 30.12 849 25.07 14.2 57.6 75 9.9 49.9
22:25 1020 30.12 849 25.07 14.1 57.4 76 10 50
22:30 1020 30.12 849 25.07 14 57.1 76 9.9 49.8
22:35 1020 30.12 849 25.07 13.9 57 77 9.9 49.9
22:40 1020 30.12 849 25.07 13.8 56.8 77 9.9 49.9
22:45 1020 30.12 849 25.07 13.7 56.6 78 10 50
22:50 1020 30.12 849 25.07 13.5 56.3 78 9.8 49.6
22:55 1020 30.12 849 25.07 13.4 56.1 78 9.7 49.4
23:00 1020 30.12 849 25.07 13.3 55.9 78 9.5 49.2
23:05 1020 30.12 849 25.07 13.2 55.7 80 9.8 49.7
23:10 1020 30.12 849 25.07 12.6 54.6 83 9.7 49.5
23:15 1020 30.12 849 25.07 12.4 54.3 82 9.5 49.1
23:20 1020 30.12 849 25.07 12.3 54.1 83 9.5 49
23:25 1020 30.12 849 25.07 12.3 54.1 81 9.2 48.6
23:30 1019 30.09 849 25.07 12.3 54.1 83 9.5 49
23:35 1019 30.09 849 25.07 12 53.5 84 9.3 48.8
23:40 1019 30.09 849 25.07 11.8 53.3 84 9.2 48.6
23:45 1019 30.09 848 25.04 12 53.6 83 9.2 48.5
23:50 1019 30.09 848 25.04 12.3 54.1 82 9.4 48.9
23:55 1019 30.09 848 25.04 12.3 54.1 82 9.4 48.9
24:00 1019 30.09 848 25.04 12.2 53.9 83 9.4 48.9